Pagrindinis puslapis
METAR-TAF:

METAR-TAF

Oro uostai :

Shahrekord, Iranas

platuma: 32-20N, ilguma: 050-51E, Aukštis: 2078 m

Dabartinis oras

Ataskaita buvo paskelbta 30 minutes, ne 11:00 UTC
Vėjas 6 kt iš Pietų/Pietvakarių
Temperatūra 24°C
Drėgmė 18%
Slėgis 1029 hPa
Matomumas 10 km arba daugiau
Mažai debesys ne aukštis 3500 ft, aukštai iškilę kamuoliniai debesys.
Išsisklaidę debesys ne aukštis 4000 ft

METAR: OIFS 141100Z 21006KT 9999 FEW035TCU SCT040 24/M02 Q1029

Laikas: 15:00 (11:30 UTC)


TAF: trūkstamas

Orai ataskaitas ir orų prognozės (METAR, TAF).

turimą stotys yra geltonos ir raudonos taškus žemėlapyje.

Perkelti pele per norėdami pamatyti stoties vardą.

Tada spustelėkite, norėdami matyti oro stebėjimo ir prognozės.

Norėdami pakeisti žemėlapį: spustelėkite ant žalios mygtukų su juodo kryžiaus žemyn,; žalią mygtuką su brūkšneliu, jei norite nutolinti; arba žalių rodyklių gretimoms žemėlapius.


METAR-TAF: